createdAt,value
2023-05-12T00:06:49.924Z,100
2023-05-12T00:26:49.942Z,100
2023-05-12T00:46:50.070Z,99.5
2023-05-12T01:06:50.681Z,99.1
2023-05-12T01:26:49.910Z,98.7
2023-05-12T01:46:50.103Z,98.8
2023-05-12T02:06:50.018Z,99.1
2023-05-12T02:26:50.043Z,99.1
2023-05-12T03:06:50.675Z,99.7
2023-05-12T03:26:50.166Z,100
2023-05-12T04:06:50.255Z,100
2023-05-12T04:26:50.780Z,100
2023-05-12T04:46:50.295Z,100
2023-05-12T05:06:50.465Z,100
2023-05-12T05:26:50.486Z,100
2023-05-12T05:46:51.785Z,99.8
2023-05-12T06:06:50.450Z,99.1
2023-05-12T06:26:50.544Z,98
2023-05-12T06:46:50.656Z,96.7
2023-05-12T07:06:50.611Z,90.9
2023-05-12T07:26:50.699Z,87.2
2023-05-12T07:46:51.278Z,85
2023-05-12T08:06:50.617Z,81.9
2023-05-12T08:26:50.917Z,76.6
2023-05-12T08:46:50.862Z,74.8
2023-05-12T09:06:50.799Z,70
2023-05-12T09:26:51.091Z,68.7
2023-05-12T09:46:50.793Z,68.2
2023-05-12T10:06:50.825Z,67.4
2023-05-12T10:26:50.946Z,65.6
2023-05-12T10:46:50.924Z,65.6
2023-05-12T11:06:51.570Z,63.9
2023-05-12T11:26:51.060Z,56.6
2023-05-12T11:46:50.942Z,58.5
2023-05-12T12:06:51.143Z,59.1
2023-05-12T12:26:51.099Z,58.1
2023-05-12T12:46:51.056Z,64.2
2023-05-12T13:06:51.180Z,67.6
2023-05-12T13:26:51.109Z,59.3
2023-05-12T13:46:51.243Z,62.2
2023-05-12T14:06:51.110Z,58.8
2023-05-12T14:26:51.241Z,58
2023-05-12T14:46:51.213Z,56.7
2023-05-12T15:06:51.277Z,54.9
2023-05-12T15:26:51.251Z,56.1
2023-05-12T15:46:51.462Z,55.7
2023-05-12T16:06:51.428Z,56.5
2023-05-12T16:26:51.344Z,59.2
2023-05-12T17:06:51.368Z,65.9
2023-05-12T17:26:51.503Z,65.9
2023-05-12T17:46:51.501Z,62.7
2023-05-12T18:06:52.679Z,61
2023-05-12T18:26:51.549Z,62.1
2023-05-12T18:46:51.750Z,64.3
2023-05-12T19:07:06.445Z,64.3
2023-05-12T19:26:51.616Z,67.7
2023-05-12T19:46:51.694Z,75.2
2023-05-12T20:06:51.748Z,75.5
2023-05-12T20:26:52.351Z,70.7
2023-05-12T20:46:51.810Z,74
2023-05-12T21:06:53.461Z,77.2
2023-05-12T21:26:51.853Z,73.6
2023-05-12T21:46:51.822Z,74.9
2023-05-12T22:06:51.899Z,80.1
2023-05-12T22:26:51.845Z,82.1
2023-05-12T22:46:51.989Z,84.4
2023-05-12T23:06:52.089Z,84.8
2023-05-12T23:26:52.080Z,86.8
2023-05-12T23:46:52.258Z,88
